sensor_id;sensor_type;location;lat;lon;timestamp;pressure;altitude;pressure_sealevel;temperature;humidity
68994;BME280;56054;50.968;5.816;2023-05-23T00:00:21;101009.81;;;16.19;100.00
68994;BME280;56054;50.968;5.816;2023-05-23T00:03:21;101011.00;;;16.25;100.00
68994;BME280;56054;50.968;5.816;2023-05-23T00:06:22;100992.28;;;16.37;100.00
68994;BME280;56054;50.968;5.816;2023-05-23T00:09:22;101000.63;;;16.29;100.00
68994;BME280;56054;50.968;5.816;2023-05-23T00:12:23;101004.28;;;16.52;100.00
68994;BME280;56054;50.968;5.816;2023-05-23T00:15:23;101001.41;;;16.26;100.00
68994;BME280;56054;50.968;5.816;2023-05-23T00:18:24;101005.50;;;16.00;100.00
68994;BME280;56054;50.968;5.816;2023-05-23T00:21:24;101000.81;;;16.12;100.00
68994;BME280;56054;50.968;5.816;2023-05-23T00:24:24;100999.16;;;16.14;100.00
68994;BME280;56054;50.968;5.816;2023-05-23T00:27:25;101009.22;;;16.24;100.00
68994;BME280;56054;50.968;5.816;2023-05-23T00:30:26;101007.03;;;15.95;100.00
68994;BME280;56054;50.968;5.816;2023-05-23T00:33:26;101003.91;;;16.03;100.00
68994;BME280;56054;50.968;5.816;2023-05-23T00:36:45;101008.13;;;16.19;100.00
68994;BME280;56054;50.968;5.816;2023-05-23T00:39:49;101016.91;;;16.02;100.00
68994;BME280;56054;50.968;5.816;2023-05-23T00:42:49;101021.06;;;15.97;100.00
68994;BME280;56054;50.968;5.816;2023-05-23T00:45:50;101023.22;;;15.68;100.00
68994;BME280;56054;50.968;5.816;2023-05-23T00:48:51;101024.28;;;15.72;100.00
68994;BME280;56054;50.968;5.816;2023-05-23T00:51:52;101029.44;;;15.70;100.00
68994;BME280;56054;50.968;5.816;2023-05-23T00:54:53;101043.06;;;15.63;100.00
68994;BME280;56054;50.968;5.816;2023-05-23T00:57:54;101042.78;;;15.39;100.00
68994;BME280;56054;50.968;5.816;2023-05-23T01:00:54;101051.50;;;15.57;100.00
68994;BME280;56054;50.968;5.816;2023-05-23T01:03:55;101060.13;;;15.55;100.00
68994;BME280;56054;50.968;5.816;2023-05-23T01:06:55;101046.66;;;15.47;100.00
68994;BME280;56054;50.968;5.816;2023-05-23T01:09:56;101052.56;;;15.43;100.00
68994;BME280;56054;50.968;5.816;2023-05-23T01:13:17;101054.06;;;15.38;100.00
68994;BME280;56054;50.968;5.816;2023-05-23T01:16:41;101047.53;;;15.48;100.00
68994;BME280;56054;50.968;5.816;2023-05-23T01:26:06;101071.06;;;15.46;100.00
68994;BME280;56054;50.968;5.816;2023-05-23T01:29:22;101073.97;;;15.34;100.00
68994;BME280;56054;50.968;5.816;2023-05-23T01:32:24;101075.69;;;15.34;100.00
68994;BME280;56054;50.968;5.816;2023-05-23T01:35:26;101072.84;;;15.29;100.00
68994;BME280;56054;50.968;5.816;2023-05-23T01:38:28;101075.38;;;15.46;100.00
68994;BME280;56054;50.968;5.816;2023-05-23T01:41:28;101075.97;;;15.40;100.00
68994;BME280;56054;50.968;5.816;2023-05-23T01:44:29;101077.41;;;15.33;100.00
68994;BME280;56054;50.968;5.816;2023-05-23T01:47:31;101078.22;;;15.32;100.00
68994;BME280;56054;50.968;5.816;2023-05-23T01:50:34;101086.75;;;15.28;100.00
68994;BME280;56054;50.968;5.816;2023-05-23T01:53:37;101079.72;;;15.45;100.00
68994;BME280;56054;50.968;5.816;2023-05-23T01:56:38;101085.72;;;15.43;100.00
68994;BME280;56054;50.968;5.816;2023-05-23T01:59:40;101081.00;;;15.35;100.00
68994;BME280;56054;50.968;5.816;2023-05-23T02:02:41;101076.56;;;15.16;100.00
68994;BME280;56054;50.968;5.816;2023-05-23T02:05:42;101082.72;;;15.17;100.00
68994;BME280;56054;50.968;5.816;2023-05-23T02:08:42;101085.59;;;15.05;100.00
68994;BME280;56054;50.968;5.816;2023-05-23T02:11:43;101080.75;;;15.31;100.00
68994;BME280;56054;50.968;5.816;2023-05-23T02:14:44;101072.00;;;15.30;100.00
68994;BME280;56054;50.968;5.816;2023-05-23T02:17:47;101070.56;;;15.19;100.00
68994;BME280;56054;50.968;5.816;2023-05-23T02:20:48;101076.34;;;15.12;100.00
68994;BME280;56054;50.968;5.816;2023-05-23T02:23:54;101075.06;;;15.04;100.00
68994;BME280;56054;50.968;5.816;2023-05-23T02:26:55;101079.47;;;15.05;100.00
68994;BME280;56054;50.968;5.816;2023-05-23T02:29:55;101079.25;;;15.18;100.00
68994;BME280;56054;50.968;5.816;2023-05-23T02:36:50;101074.25;;;15.05;100.00
68994;BME280;56054;50.968;5.816;2023-05-23T02:49:40;101078.88;;;15.28;100.00
68994;BME280;56054;50.968;5.816;2023-05-23T02:52:40;101092.88;;;15.11;100.00
68994;BME280;56054;50.968;5.816;2023-05-23T02:55:40;101094.59;;;15.10;100.00
68994;BME280;56054;50.968;5.816;2023-05-23T02:58:41;101096.81;;;15.03;100.00
68994;BME280;56054;50.968;5.816;2023-05-23T03:01:41;101104.50;;;14.99;100.00
68994;BME280;56054;50.968;5.816;2023-05-23T03:04:42;101086.72;;;15.10;100.00
68994;BME280;56054;50.968;5.816;2023-05-23T03:07:42;101099.91;;;15.12;100.00
68994;BME280;56054;50.968;5.816;2023-05-23T03:10:43;101097.25;;;14.94;100.00
68994;BME280;56054;50.968;5.816;2023-05-23T03:13:44;101102.53;;;15.12;100.00
68994;BME280;56054;50.968;5.816;2023-05-23T03:16:44;101112.91;;;15.10;100.00
68994;BME280;56054;50.968;5.816;2023-05-23T03:19:45;101105.59;;;14.87;100.00
68994;BME280;56054;50.968;5.816;2023-05-23T03:22:45;101111.22;;;14.94;100.00
68994;BME280;56054;50.968;5.816;2023-05-23T03:25:46;101115.13;;;15.03;100.00
68994;BME280;56054;50.968;5.816;2023-05-23T03:28:47;101117.38;;;14.95;100.00
68994;BME280;56054;50.968;5.816;2023-05-23T03:31:48;101115.25;;;14.88;100.00
68994;BME280;56054;50.968;5.816;2023-05-23T03:34:48;101120.19;;;14.99;100.00
68994;BME280;56054;50.968;5.816;2023-05-23T03:37:49;101127.47;;;15.05;100.00
68994;BME280;56054;50.968;5.816;2023-05-23T03:40:50;101124.47;;;14.97;100.00
68994;BME280;56054;50.968;5.816;2023-05-23T03:43:50;101121.38;;;14.88;100.00
68994;BME280;56054;50.968;5.816;2023-05-23T03:46:51;101128.09;;;14.83;100.00
68994;BME280;56054;50.968;5.816;2023-05-23T03:49:51;101135.94;;;14.83;100.00
68994;BME280;56054;50.968;5.816;2023-05-23T03:52:53;101130.53;;;14.80;100.00
68994;BME280;56054;50.968;5.816;2023-05-23T03:55:54;101137.81;;;14.86;100.00
68994;BME280;56054;50.968;5.816;2023-05-23T03:58:55;101132.09;;;14.93;100.00
68994;BME280;56054;50.968;5.816;2023-05-23T04:01:55;101139.34;;;14.82;100.00
68994;BME280;56054;50.968;5.816;2023-05-23T04:04:55;101142.56;;;14.76;100.00
68994;BME280;56054;50.968;5.816;2023-05-23T04:07:57;101142.66;;;14.78;100.00
68994;BME280;56054;50.968;5.816;2023-05-23T04:10:58;101149.03;;;14.83;100.00
68994;BME280;56054;50.968;5.816;2023-05-23T04:14:00;101152.88;;;14.57;100.00
68994;BME280;56054;50.968;5.816;2023-05-23T04:17:00;101156.22;;;14.71;100.00
68994;BME280;56054;50.968;5.816;2023-05-23T04:20:01;101157.13;;;14.88;100.00
68994;BME280;56054;50.968;5.816;2023-05-23T04:23:01;101164.13;;;14.89;100.00
68994;BME280;56054;50.968;5.816;2023-05-23T04:26:04;101157.41;;;14.94;100.00
68994;BME280;56054;50.968;5.816;2023-05-23T04:29:08;101161.13;;;14.81;100.00
68994;BME280;56054;50.968;5.816;2023-05-23T04:32:10;101158.09;;;14.73;100.00
68994;BME280;56054;50.968;5.816;2023-05-23T04:35:10;101155.53;;;14.75;100.00
68994;BME280;56054;50.968;5.816;2023-05-23T04:38:13;101157.28;;;14.74;100.00
68994;BME280;56054;50.968;5.816;2023-05-23T04:41:14;101161.94;;;14.64;100.00
68994;BME280;56054;50.968;5.816;2023-05-23T04:44:38;101166.59;;;14.69;100.00
68994;BME280;56054;50.968;5.816;2023-05-23T04:47:50;101162.25;;;14.70;100.00
68994;BME280;56054;50.968;5.816;2023-05-23T04:51:03;101173.06;;;14.76;100.00
68994;BME280;56054;50.968;5.816;2023-05-23T04:54:04;101164.88;;;14.70;100.00
68994;BME280;56054;50.968;5.816;2023-05-23T04:57:05;101163.59;;;14.78;100.00
68994;BME280;56054;50.968;5.816;2023-05-23T05:00:06;101168.97;;;14.81;100.00
68994;BME280;56054;50.968;5.816;2023-05-23T05:03:08;101168.41;;;14.70;100.00
68994;BME280;56054;50.968;5.816;2023-05-23T05:06:13;101165.22;;;14.76;100.00
68994;BME280;56054;50.968;5.816;2023-05-23T05:09:15;101164.38;;;14.77;100.00
68994;BME280;56054;50.968;5.816;2023-05-23T05:12:17;101169.63;;;14.77;100.00
68994;BME280;56054;50.968;5.816;2023-05-23T05:15:18;101173.38;;;14.82;100.00
68994;BME280;56054;50.968;5.816;2023-05-23T05:18:20;101171.44;;;14.78;100.00
68994;BME280;56054;50.968;5.816;2023-05-23T05:21:21;101174.09;;;14.80;100.00
68994;BME280;56054;50.968;5.816;2023-05-23T05:24:23;101165.69;;;14.69;100.00
68994;BME280;56054;50.968;5.816;2023-05-23T05:27:24;101167.66;;;14.57;100.00
68994;BME280;56054;50.968;5.816;2023-05-23T05:30:25;101187.22;;;14.63;100.00
68994;BME280;56054;50.968;5.816;2023-05-23T05:33:30;101176.25;;;14.70;100.00
68994;BME280;56054;50.968;5.816;2023-05-23T05:36:38;101185.72;;;14.68;100.00
68994;BME280;56054;50.968;5.816;2023-05-23T05:39:39;101180.97;;;14.77;100.00
68994;BME280;56054;50.968;5.816;2023-05-23T05:42:39;101192.16;;;14.75;100.00
68994;BME280;56054;50.968;5.816;2023-05-23T05:45:40;101194.38;;;14.67;100.00
68994;BME280;56054;50.968;5.816;2023-05-23T05:48:40;101191.63;;;14.81;100.00
68994;BME280;56054;50.968;5.816;2023-05-23T06:08:59;101206.25;;;14.77;100.00
68994;BME280;56054;50.968;5.816;2023-05-23T06:11:59;101205.97;;;14.72;100.00
68994;BME280;56054;50.968;5.816;2023-05-23T06:15:00;101214.03;;;14.44;100.00
68994;BME280;56054;50.968;5.816;2023-05-23T06:18:01;101214.75;;;14.73;100.00
68994;BME280;56054;50.968;5.816;2023-05-23T06:21:05;101215.31;;;14.67;100.00
68994;BME280;56054;50.968;5.816;2023-05-23T06:24:07;101218.56;;;14.80;100.00
68994;BME280;56054;50.968;5.816;2023-05-23T06:27:08;101214.25;;;14.64;100.00
68994;BME280;56054;50.968;5.816;2023-05-23T06:30:08;101224.03;;;14.68;100.00
68994;BME280;56054;50.968;5.816;2023-05-23T06:33:09;101220.72;;;14.70;100.00
68994;BME280;56054;50.968;5.816;2023-05-23T06:36:09;101231.41;;;14.59;100.00
68994;BME280;56054;50.968;5.816;2023-05-23T06:39:10;101221.63;;;14.71;100.00
68994;BME280;56054;50.968;5.816;2023-05-23T06:42:11;101218.69;;;14.50;100.00
68994;BME280;56054;50.968;5.816;2023-05-23T06:45:29;101221.41;;;14.51;100.00
68994;BME280;56054;50.968;5.816;2023-05-23T06:48:30;101229.13;;;14.65;100.00
68994;BME280;56054;50.968;5.816;2023-05-23T06:51:32;101236.16;;;14.66;100.00
68994;BME280;56054;50.968;5.816;2023-05-23T06:54:34;101232.88;;;14.70;100.00
68994;BME280;56054;50.968;5.816;2023-05-23T06:57:34;101230.25;;;14.70;100.00
68994;BME280;56054;50.968;5.816;2023-05-23T07:00:35;101240.41;;;14.64;100.00
68994;BME280;56054;50.968;5.816;2023-05-23T07:03:44;101237.13;;;14.68;100.00
68994;BME280;56054;50.968;5.816;2023-05-23T07:06:46;101245.22;;;14.72;100.00
68994;BME280;56054;50.968;5.816;2023-05-23T07:09:46;101246.72;;;14.84;100.00
68994;BME280;56054;50.968;5.816;2023-05-23T07:12:51;101246.88;;;14.70;100.00
68994;BME280;56054;50.968;5.816;2023-05-23T07:15:55;101244.91;;;14.66;100.00
68994;BME280;56054;50.968;5.816;2023-05-23T07:18:55;101252.19;;;14.72;100.00
68994;BME280;56054;50.968;5.816;2023-05-23T07:21:56;101247.19;;;14.76;100.00
68994;BME280;56054;50.968;5.816;2023-05-23T07:24:57;101259.50;;;14.63;100.00
68994;BME280;56054;50.968;5.816;2023-05-23T07:28:03;101262.53;;;14.54;100.00
68994;BME280;56054;50.968;5.816;2023-05-23T07:31:03;101262.81;;;14.44;100.00
68994;BME280;56054;50.968;5.816;2023-05-23T07:34:05;101272.34;;;14.43;100.00
68994;BME280;56054;50.968;5.816;2023-05-23T07:37:12;101272.75;;;14.34;100.00
68994;BME280;56054;50.968;5.816;2023-05-23T07:40:17;101273.41;;;14.16;100.00
68994;BME280;56054;50.968;5.816;2023-05-23T07:43:17;101281.25;;;14.16;100.00
68994;BME280;56054;50.968;5.816;2023-05-23T07:46:18;101291.09;;;14.05;100.00
68994;BME280;56054;50.968;5.816;2023-05-23T07:49:19;101292.91;;;13.91;100.00
68994;BME280;56054;50.968;5.816;2023-05-23T07:52:20;101288.66;;;13.93;100.00
68994;BME280;56054;50.968;5.816;2023-05-23T07:55:20;101284.78;;;13.86;100.00
68994;BME280;56054;50.968;5.816;2023-05-23T07:58:28;101291.72;;;13.86;100.00
68994;BME280;56054;50.968;5.816;2023-05-23T08:01:28;101297.84;;;13.72;100.00
68994;BME280;56054;50.968;5.816;2023-05-23T08:04:34;101291.63;;;13.84;100.00
68994;BME280;56054;50.968;5.816;2023-05-23T08:07:38;101290.84;;;13.85;100.00
68994;BME280;56054;50.968;5.816;2023-05-23T08:10:39;101304.88;;;13.73;100.00
68994;BME280;56054;50.968;5.816;2023-05-23T08:13:44;101298.03;;;13.89;100.00
68994;BME280;56054;50.968;5.816;2023-05-23T08:17:13;101310.19;;;13.89;100.00
68994;BME280;56054;50.968;5.816;2023-05-23T08:20:15;101308.13;;;13.98;100.00
68994;BME280;56054;50.968;5.816;2023-05-23T08:23:15;101318.56;;;14.13;100.00
68994;BME280;56054;50.968;5.816;2023-05-23T08:26:16;101310.28;;;14.20;100.00
68994;BME280;56054;50.968;5.816;2023-05-23T08:29:17;101317.50;;;14.09;100.00
68994;BME280;56054;50.968;5.816;2023-05-23T08:32:18;101304.84;;;14.32;100.00
68994;BME280;56054;50.968;5.816;2023-05-23T08:35:19;101320.72;;;14.20;100.00
68994;BME280;56054;50.968;5.816;2023-05-23T08:38:22;101314.41;;;14.17;100.00
68994;BME280;56054;50.968;5.816;2023-05-23T08:41:41;101320.69;;;14.35;100.00
68994;BME280;56054;50.968;5.816;2023-05-23T08:44:45;101313.91;;;14.07;100.00
68994;BME280;56054;50.968;5.816;2023-05-23T08:47:46;101324.16;;;14.19;100.00
68994;BME280;56054;50.968;5.816;2023-05-23T08:50:49;101329.19;;;14.16;100.00
68994;BME280;56054;50.968;5.816;2023-05-23T08:53:52;101335.16;;;13.84;100.00
68994;BME280;56054;50.968;5.816;2023-05-23T08:56:55;101341.47;;;14.17;100.00
68994;BME280;56054;50.968;5.816;2023-05-23T08:59:56;101348.31;;;14.00;100.00
68994;BME280;56054;50.968;5.816;2023-05-23T09:02:58;101356.44;;;14.05;100.00
68994;BME280;56054;50.968;5.816;2023-05-23T09:06:15;101351.81;;;14.01;100.00
68994;BME280;56054;50.968;5.816;2023-05-23T09:09:16;101362.16;;;13.99;100.00
68994;BME280;56054;50.968;5.816;2023-05-23T09:12:17;101366.22;;;13.94;100.00
68994;BME280;56054;50.968;5.816;2023-05-23T09:15:20;101363.06;;;13.85;100.00
68994;BME280;56054;50.968;5.816;2023-05-23T09:18:20;101373.44;;;13.83;100.00
68994;BME280;56054;50.968;5.816;2023-05-23T09:21:23;101369.00;;;13.97;100.00
68994;BME280;56054;50.968;5.816;2023-05-23T09:24:45;101368.50;;;14.18;100.00
68994;BME280;56054;50.968;5.816;2023-05-23T09:27:45;101373.44;;;14.28;100.00
68994;BME280;56054;50.968;5.816;2023-05-23T09:30:46;101373.28;;;14.25;100.00
68994;BME280;56054;50.968;5.816;2023-05-23T09:33:48;101371.00;;;14.31;100.00
68994;BME280;56054;50.968;5.816;2023-05-23T09:36:50;101373.59;;;14.31;100.00
68994;BME280;56054;50.968;5.816;2023-05-23T09:39:54;101373.97;;;14.37;99.80
68994;BME280;56054;50.968;5.816;2023-05-23T09:42:54;101374.69;;;14.49;98.95
68994;BME280;56054;50.968;5.816;2023-05-23T09:46:00;101376.13;;;14.44;97.77
68994;BME280;56054;50.968;5.816;2023-05-23T09:49:01;101369.94;;;14.57;98.35
68994;BME280;56054;50.968;5.816;2023-05-23T09:52:02;101383.16;;;14.60;97.76
68994;BME280;56054;50.968;5.816;2023-05-23T09:55:03;101372.63;;;14.90;97.58
68994;BME280;56054;50.968;5.816;2023-05-23T09:58:04;101375.22;;;15.05;95.05
68994;BME280;56054;50.968;5.816;2023-05-23T10:01:08;101384.16;;;15.25;94.77
68994;BME280;56054;50.968;5.816;2023-05-23T10:04:10;101377.78;;;15.19;91.96
68994;BME280;56054;50.968;5.816;2023-05-23T10:07:13;101375.41;;;15.40;90.65
68994;BME280;56054;50.968;5.816;2023-05-23T10:10:13;101379.97;;;15.12;91.37
68994;BME280;56054;50.968;5.816;2023-05-23T10:13:14;101383.91;;;15.20;92.17
68994;BME280;56054;50.968;5.816;2023-05-23T10:16:21;101385.69;;;15.21;92.76
68994;BME280;56054;50.968;5.816;2023-05-23T10:22:42;101383.66;;;15.15;93.84
68994;BME280;56054;50.968;5.816;2023-05-23T10:25:43;101391.53;;;15.32;93.42
68994;BME280;56054;50.968;5.816;2023-05-23T10:28:45;101393.47;;;15.36;93.77
68994;BME280;56054;50.968;5.816;2023-05-23T10:31:46;101393.41;;;15.34;92.53
68994;BME280;56054;50.968;5.816;2023-05-23T10:41:38;101402.34;;;15.22;91.72
68994;BME280;56054;50.968;5.816;2023-05-23T10:44:40;101397.22;;;15.08;92.81
68994;BME280;56054;50.968;5.816;2023-05-23T10:47:41;101404.47;;;14.97;93.27
68994;BME280;56054;50.968;5.816;2023-05-23T10:50:41;101397.72;;;15.17;92.95
68994;BME280;56054;50.968;5.816;2023-05-23T10:53:43;101393.38;;;15.18;92.84
68994;BME280;56054;50.968;5.816;2023-05-23T10:56:44;101395.13;;;15.50;93.25
68994;BME280;56054;50.968;5.816;2023-05-23T10:59:45;101388.16;;;15.67;91.72
68994;BME280;56054;50.968;5.816;2023-05-23T11:02:52;101389.28;;;15.71;90.91
68994;BME280;56054;50.968;5.816;2023-05-23T11:10:09;101387.22;;;15.81;89.27
68994;BME280;56054;50.968;5.816;2023-05-23T11:13:09;101398.84;;;15.87;88.08
68994;BME280;56054;50.968;5.816;2023-05-23T11:16:27;101392.47;;;15.81;88.18
68994;BME280;56054;50.968;5.816;2023-05-23T11:19:28;101395.50;;;15.73;89.63
68994;BME280;56054;50.968;5.816;2023-05-23T11:22:28;101388.09;;;15.49;88.17
68994;BME280;56054;50.968;5.816;2023-05-23T11:25:40;101401.50;;;15.55;89.23
68994;BME280;56054;50.968;5.816;2023-05-23T11:28:57;101393.84;;;15.75;89.04
68994;BME280;56054;50.968;5.816;2023-05-23T11:31:57;101400.16;;;15.78;89.14
68994;BME280;56054;50.968;5.816;2023-05-23T11:35:06;101395.56;;;15.91;87.66
68994;BME280;56054;50.968;5.816;2023-05-23T11:38:08;101397.00;;;16.02;87.23
68994;BME280;56054;50.968;5.816;2023-05-23T11:41:11;101397.16;;;15.71;86.44
68994;BME280;56054;50.968;5.816;2023-05-23T11:44:12;101400.09;;;16.11;88.54
68994;BME280;56054;50.968;5.816;2023-05-23T11:47:12;101400.44;;;16.17;88.26
68994;BME280;56054;50.968;5.816;2023-05-23T11:50:14;101404.44;;;16.45;85.64
68994;BME280;56054;50.968;5.816;2023-05-23T11:53:16;101402.72;;;16.11;83.97
68994;BME280;56054;50.968;5.816;2023-05-23T11:56:17;101404.94;;;16.38;84.70
68994;BME280;56054;50.968;5.816;2023-05-23T11:59:24;101408.69;;;16.43;81.62
68994;BME280;56054;50.968;5.816;2023-05-23T12:02:27;101408.78;;;16.44;79.31
68994;BME280;56054;50.968;5.816;2023-05-23T12:05:27;101419.78;;;16.37;77.58
68994;BME280;56054;50.968;5.816;2023-05-23T12:08:28;101406.31;;;16.47;78.84
68994;BME280;56054;50.968;5.816;2023-05-23T12:11:32;101414.34;;;16.16;80.66
68994;BME280;56054;50.968;5.816;2023-05-23T12:14:32;101415.88;;;16.29;81.77
68994;BME280;56054;50.968;5.816;2023-05-23T12:17:33;101416.94;;;16.51;79.46
68994;BME280;56054;50.968;5.816;2023-05-23T12:20:34;101417.78;;;16.67;78.98
68994;BME280;56054;50.968;5.816;2023-05-23T12:23:35;101411.50;;;16.64;77.95
68994;BME280;56054;50.968;5.816;2023-05-23T12:26:54;101401.81;;;17.36;76.61
68994;BME280;56054;50.968;5.816;2023-05-23T12:30:04;101416.22;;;17.25;74.76
68994;BME280;56054;50.968;5.816;2023-05-23T12:33:07;101416.56;;;17.32;72.89
68994;BME280;56054;50.968;5.816;2023-05-23T12:36:08;101406.28;;;17.37;69.53
68994;BME280;56054;50.968;5.816;2023-05-23T12:39:08;101398.94;;;17.69;70.34
68994;BME280;56054;50.968;5.816;2023-05-23T12:42:09;101399.28;;;17.57;69.83
68994;BME280;56054;50.968;5.816;2023-05-23T12:45:13;101392.84;;;17.50;66.07
68994;BME280;56054;50.968;5.816;2023-05-23T12:48:15;101409.09;;;17.42;67.56
68994;BME280;56054;50.968;5.816;2023-05-23T12:51:15;101402.56;;;17.71;68.17
68994;BME280;56054;50.968;5.816;2023-05-23T12:54:16;101407.56;;;17.27;67.65
68994;BME280;56054;50.968;5.816;2023-05-23T12:57:16;101410.91;;;18.01;66.68
68994;BME280;56054;50.968;5.816;2023-05-23T13:00:17;101404.63;;;17.78;65.12
68994;BME280;56054;50.968;5.816;2023-05-23T13:03:18;101392.66;;;18.25;65.36
68994;BME280;56054;50.968;5.816;2023-05-23T13:06:18;101399.84;;;18.08;62.22
68994;BME280;56054;50.968;5.816;2023-05-23T13:13:29;101404.03;;;17.84;61.84
68994;BME280;56054;50.968;5.816;2023-05-23T13:16:38;101404.91;;;17.84;59.16
68994;BME280;56054;50.968;5.816;2023-05-23T13:19:39;101402.88;;;17.79;59.74
68994;BME280;56054;50.968;5.816;2023-05-23T13:22:39;101406.25;;;18.15;62.93
68994;BME280;56054;50.968;5.816;2023-05-23T13:25:40;101408.25;;;18.21;61.90
68994;BME280;56054;50.968;5.816;2023-05-23T13:28:40;101411.00;;;18.03;63.25
68994;BME280;56054;50.968;5.816;2023-05-23T13:31:41;101412.25;;;17.91;62.03
68994;BME280;56054;50.968;5.816;2023-05-23T13:34:41;101399.19;;;18.14;58.98
68994;BME280;56054;50.968;5.816;2023-05-23T13:37:42;101398.25;;;18.12;60.22
68994;BME280;56054;50.968;5.816;2023-05-23T13:40:46;101408.72;;;17.91;59.92
68994;BME280;56054;50.968;5.816;2023-05-23T13:43:46;101406.91;;;17.70;59.42
68994;BME280;56054;50.968;5.816;2023-05-23T13:46:46;101403.75;;;18.18;60.41
68994;BME280;56054;50.968;5.816;2023-05-23T13:49:47;101388.22;;;18.45;59.56
68994;BME280;56054;50.968;5.816;2023-05-23T13:52:47;101378.00;;;18.53;59.82
68994;BME280;56054;50.968;5.816;2023-05-23T13:55:48;101379.06;;;18.56;59.93
68994;BME280;56054;50.968;5.816;2023-05-23T13:58:48;101389.19;;;18.47;61.24
68994;BME280;56054;50.968;5.816;2023-05-23T14:01:49;101384.19;;;18.32;58.89
68994;BME280;56054;50.968;5.816;2023-05-23T14:04:49;101386.91;;;17.93;60.02
68994;BME280;56054;50.968;5.816;2023-05-23T14:07:50;101388.56;;;17.72;61.56
68994;BME280;56054;50.968;5.816;2023-05-23T14:10:50;101385.84;;;18.30;60.84
68994;BME280;56054;50.968;5.816;2023-05-23T14:13:50;101396.50;;;18.12;60.68
68994;BME280;56054;50.968;5.816;2023-05-23T14:16:51;101393.16;;;18.16;60.49
68994;BME280;56054;50.968;5.816;2023-05-23T14:19:51;101380.34;;;18.24;58.28
68994;BME280;56054;50.968;5.816;2023-05-23T14:22:52;101382.19;;;18.69;56.62
68994;BME280;56054;50.968;5.816;2023-05-23T14:25:52;101386.56;;;18.68;57.07
68994;BME280;56054;50.968;5.816;2023-05-23T14:28:53;101385.78;;;19.14;55.16
68994;BME280;56054;50.968;5.816;2023-05-23T14:31:53;101384.69;;;18.87;55.15
68994;BME280;56054;50.968;5.816;2023-05-23T14:34:53;101380.97;;;18.81;54.50
68994;BME280;56054;50.968;5.816;2023-05-23T14:37:54;101387.84;;;19.23;53.05
68994;BME280;56054;50.968;5.816;2023-05-23T14:40:54;101375.88;;;19.78;52.97
68994;BME280;56054;50.968;5.816;2023-05-23T14:43:55;101388.75;;;19.46;52.80
68994;BME280;56054;50.968;5.816;2023-05-23T14:46:55;101381.97;;;19.77;53.41
68994;BME280;56054;50.968;5.816;2023-05-23T14:49:56;101382.84;;;19.53;53.61
68994;BME280;56054;50.968;5.816;2023-05-23T14:52:56;101386.59;;;19.13;52.44
68994;BME280;56054;50.968;5.816;2023-05-23T14:55:56;101380.34;;;19.80;52.46
68994;BME280;56054;50.968;5.816;2023-05-23T14:58:57;101377.09;;;20.39;51.00
68994;BME280;56054;50.968;5.816;2023-05-23T15:01:57;101379.94;;;19.70;52.08
68994;BME280;56054;50.968;5.816;2023-05-23T15:05:00;101373.06;;;19.73;52.85
68994;BME280;56054;50.968;5.816;2023-05-23T15:08:01;101368.22;;;19.85;52.13
68994;BME280;56054;50.968;5.816;2023-05-23T15:11:01;101363.31;;;19.71;51.09
68994;BME280;56054;50.968;5.816;2023-05-23T15:14:01;101376.22;;;20.14;51.75
68994;BME280;56054;50.968;5.816;2023-05-23T15:17:02;101373.72;;;19.67;51.58
68994;BME280;56054;50.968;5.816;2023-05-23T15:20:03;101377.06;;;18.94;51.41
68994;BME280;56054;50.968;5.816;2023-05-23T15:23:04;101389.63;;;19.46;50.55
68994;BME280;56054;50.968;5.816;2023-05-23T15:26:07;101377.16;;;19.42;50.54
68994;BME280;56054;50.968;5.816;2023-05-23T15:29:08;101373.06;;;19.04;49.11
68994;BME280;56054;50.968;5.816;2023-05-23T15:32:11;101374.28;;;19.12;49.41
68994;BME280;56054;50.968;5.816;2023-05-23T15:35:12;101372.91;;;19.22;49.23
68994;BME280;56054;50.968;5.816;2023-05-23T15:38:13;101364.84;;;18.95;47.37
68994;BME280;56054;50.968;5.816;2023-05-23T15:41:15;101363.94;;;18.51;49.19
68994;BME280;56054;50.968;5.816;2023-05-23T15:44:15;101366.56;;;18.73;50.17
68994;BME280;56054;50.968;5.816;2023-05-23T15:47:16;101377.94;;;18.93;49.52
68994;BME280;56054;50.968;5.816;2023-05-23T15:50:16;101375.84;;;18.43;50.09
68994;BME280;56054;50.968;5.816;2023-05-23T15:53:17;101373.09;;;18.18;49.46
68994;BME280;56054;50.968;5.816;2023-05-23T15:56:17;101366.09;;;18.40;49.90
68994;BME280;56054;50.968;5.816;2023-05-23T15:59:17;101366.19;;;18.64;50.05
68994;BME280;56054;50.968;5.816;2023-05-23T16:02:18;101353.44;;;18.96;48.14
68994;BME280;56054;50.968;5.816;2023-05-23T16:05:18;101364.34;;;18.61;49.62
68994;BME280;56054;50.968;5.816;2023-05-23T16:08:19;101372.91;;;18.35;50.35
68994;BME280;56054;50.968;5.816;2023-05-23T16:11:20;101377.06;;;18.09;50.87
68994;BME280;56054;50.968;5.816;2023-05-23T16:14:22;101369.16;;;18.09;50.15
68994;BME280;56054;50.968;5.816;2023-05-23T16:17:23;101362.56;;;18.18;50.36
68994;BME280;56054;50.968;5.816;2023-05-23T16:20:23;101380.66;;;18.11;50.22
68994;BME280;56054;50.968;5.816;2023-05-23T16:23:24;101381.22;;;18.04;50.80
68994;BME280;56054;50.968;5.816;2023-05-23T16:26:25;101384.59;;;17.80;51.23
68994;BME280;56054;50.968;5.816;2023-05-23T16:29:25;101390.50;;;17.76;51.84
68994;BME280;56054;50.968;5.816;2023-05-23T16:32:27;101373.91;;;17.96;50.29
68994;BME280;56054;50.968;5.816;2023-05-23T16:35:27;101373.44;;;18.07;49.30
68994;BME280;56054;50.968;5.816;2023-05-23T16:38:28;101370.97;;;18.10;48.34
68994;BME280;56054;50.968;5.816;2023-05-23T16:41:28;101371.34;;;18.19;48.25